sensor_id;sensor_type;location;lat;lon;timestamp;P1;durP1;ratioP1;P2;durP2;ratioP2
56181;SDS011;51963;46.052;14.544;2022-11-15T00:00:58;40.83;;;20.67;;
56181;SDS011;51963;46.052;14.544;2022-11-15T00:03:42;42.58;;;21.42;;
56181;SDS011;51963;46.052;14.544;2022-11-15T00:06:26;38.10;;;20.02;;
56181;SDS011;51963;46.052;14.544;2022-11-15T00:09:11;39.95;;;20.17;;
56181;SDS011;51963;46.052;14.544;2022-11-15T00:11:55;35.60;;;19.20;;
56181;SDS011;51963;46.052;14.544;2022-11-15T00:14:39;38.78;;;19.88;;
56181;SDS011;51963;46.052;14.544;2022-11-15T00:17:23;35.65;;;18.95;;
56181;SDS011;51963;46.052;14.544;2022-11-15T00:20:08;37.58;;;18.67;;
56181;SDS011;51963;46.052;14.544;2022-11-15T00:22:52;30.00;;;16.95;;
56181;SDS011;51963;46.052;14.544;2022-11-15T00:25:37;36.47;;;19.40;;
56181;SDS011;51963;46.052;14.544;2022-11-15T00:28:21;34.63;;;19.08;;
56181;SDS011;51963;46.052;14.544;2022-11-15T00:31:07;32.20;;;17.73;;
56181;SDS011;51963;46.052;14.544;2022-11-15T00:33:54;34.47;;;18.58;;
56181;SDS011;51963;46.052;14.544;2022-11-15T00:36:39;33.08;;;17.83;;
56181;SDS011;51963;46.052;14.544;2022-11-15T00:39:23;40.35;;;19.88;;
56181;SDS011;51963;46.052;14.544;2022-11-15T00:42:07;34.15;;;18.40;;
56181;SDS011;51963;46.052;14.544;2022-11-15T00:44:52;38.17;;;19.60;;
56181;SDS011;51963;46.052;14.544;2022-11-15T00:47:36;41.55;;;21.48;;
56181;SDS011;51963;46.052;14.544;2022-11-15T00:50:20;41.97;;;21.48;;
56181;SDS011;51963;46.052;14.544;2022-11-15T00:53:05;39.75;;;20.95;;
56181;SDS011;51963;46.052;14.544;2022-11-15T00:55:49;41.85;;;21.30;;
56181;SDS011;51963;46.052;14.544;2022-11-15T00:58:33;44.05;;;21.23;;
56181;SDS011;51963;46.052;14.544;2022-11-15T01:01:17;39.55;;;20.10;;
56181;SDS011;51963;46.052;14.544;2022-11-15T01:04:02;42.58;;;22.05;;
56181;SDS011;51963;46.052;14.544;2022-11-15T01:06:46;39.00;;;19.88;;
56181;SDS011;51963;46.052;14.544;2022-11-15T01:09:31;39.22;;;21.00;;
56181;SDS011;51963;46.052;14.544;2022-11-15T01:12:15;40.78;;;19.80;;
56181;SDS011;51963;46.052;14.544;2022-11-15T01:14:59;40.70;;;21.27;;
56181;SDS011;51963;46.052;14.544;2022-11-15T01:17:43;43.53;;;21.70;;
56181;SDS011;51963;46.052;14.544;2022-11-15T01:20:27;38.72;;;20.50;;
56181;SDS011;51963;46.052;14.544;2022-11-15T01:23:11;42.47;;;22.48;;
56181;SDS011;51963;46.052;14.544;2022-11-15T01:26:02;40.17;;;21.50;;
56181;SDS011;51963;46.052;14.544;2022-11-15T01:28:48;36.85;;;18.98;;
56181;SDS011;51963;46.052;14.544;2022-11-15T01:31:32;40.05;;;19.55;;
56181;SDS011;51963;46.052;14.544;2022-11-15T01:34:16;37.33;;;19.17;;
56181;SDS011;51963;46.052;14.544;2022-11-15T01:37:00;37.92;;;20.52;;
56181;SDS011;51963;46.052;14.544;2022-11-15T01:39:45;36.92;;;19.88;;
56181;SDS011;51963;46.052;14.544;2022-11-15T01:42:29;42.65;;;21.20;;
56181;SDS011;51963;46.052;14.544;2022-11-15T01:45:14;37.38;;;18.98;;
56181;SDS011;51963;46.052;14.544;2022-11-15T01:47:59;43.97;;;21.35;;
56181;SDS011;51963;46.052;14.544;2022-11-15T01:50:43;42.72;;;21.65;;
56181;SDS011;51963;46.052;14.544;2022-11-15T01:53:28;40.78;;;21.27;;
56181;SDS011;51963;46.052;14.544;2022-11-15T01:56:20;39.03;;;20.42;;
56181;SDS011;51963;46.052;14.544;2022-11-15T01:59:07;39.55;;;19.75;;
56181;SDS011;51963;46.052;14.544;2022-11-15T02:01:52;39.65;;;20.63;;
56181;SDS011;51963;46.052;14.544;2022-11-15T02:04:41;44.28;;;21.40;;
56181;SDS011;51963;46.052;14.544;2022-11-15T02:07:29;42.08;;;20.80;;
56181;SDS011;51963;46.052;14.544;2022-11-15T02:10:19;43.78;;;20.38;;
56181;SDS011;51963;46.052;14.544;2022-11-15T02:13:05;38.90;;;20.50;;
56181;SDS011;51963;46.052;14.544;2022-11-15T02:15:52;43.25;;;21.92;;
56181;SDS011;51963;46.052;14.544;2022-11-15T02:18:50;41.28;;;21.58;;
56181;SDS011;51963;46.052;14.544;2022-11-15T02:21:43;46.00;;;21.52;;
56181;SDS011;51963;46.052;14.544;2022-11-15T02:33:59;47.28;;;22.77;;
56181;SDS011;51963;46.052;14.544;2022-11-15T02:37:18;47.47;;;21.70;;
56181;SDS011;51963;46.052;14.544;2022-11-15T02:44:10;43.67;;;21.60;;
56181;SDS011;51963;46.052;14.544;2022-11-15T02:46:42;53.55;;;24.67;;
56181;SDS011;51963;46.052;14.544;2022-11-15T02:49:50;48.97;;;23.23;;
56181;SDS011;51963;46.052;14.544;2022-11-15T02:52:37;47.77;;;24.10;;
56181;SDS011;51963;46.052;14.544;2022-11-15T02:55:25;49.92;;;23.80;;
56181;SDS011;51963;46.052;14.544;2022-11-15T03:08:32;51.28;;;25.17;;
56181;SDS011;51963;46.052;14.544;2022-11-15T03:11:18;52.75;;;24.67;;
56181;SDS011;51963;46.052;14.544;2022-11-15T03:14:14;58.10;;;26.03;;
56181;SDS011;51963;46.052;14.544;2022-11-15T03:20:09;56.25;;;25.80;;
56181;SDS011;51963;46.052;14.544;2022-11-15T03:23:00;58.33;;;27.27;;
56181;SDS011;51963;46.052;14.544;2022-11-15T03:25:50;57.85;;;26.45;;
56181;SDS011;51963;46.052;14.544;2022-11-15T03:28:39;58.75;;;26.77;;
56181;SDS011;51963;46.052;14.544;2022-11-15T03:31:28;61.35;;;26.83;;
56181;SDS011;51963;46.052;14.544;2022-11-15T03:34:34;61.22;;;26.52;;
56181;SDS011;51963;46.052;14.544;2022-11-15T03:37:46;57.45;;;27.20;;
56181;SDS011;51963;46.052;14.544;2022-11-15T03:40:45;53.90;;;25.23;;
56181;SDS011;51963;46.052;14.544;2022-11-15T03:43:53;53.53;;;25.23;;
56181;SDS011;51963;46.052;14.544;2022-11-15T03:46:47;51.80;;;25.08;;
56181;SDS011;51963;46.052;14.544;2022-11-15T03:49:42;53.60;;;25.05;;
56181;SDS011;51963;46.052;14.544;2022-11-15T03:52:31;57.42;;;26.42;;
56181;SDS011;51963;46.052;14.544;2022-11-15T03:55:18;51.13;;;25.10;;
56181;SDS011;51963;46.052;14.544;2022-11-15T03:58:04;62.67;;;27.50;;
56181;SDS011;51963;46.052;14.544;2022-11-15T04:00:49;58.78;;;26.35;;
56181;SDS011;51963;46.052;14.544;2022-11-15T04:03:33;56.75;;;25.55;;
56181;SDS011;51963;46.052;14.544;2022-11-15T04:06:17;56.75;;;26.73;;
56181;SDS011;51963;46.052;14.544;2022-11-15T04:09:02;58.38;;;26.02;;
56181;SDS011;51963;46.052;14.544;2022-11-15T04:11:46;51.88;;;25.70;;
56181;SDS011;51963;46.052;14.544;2022-11-15T04:14:30;63.35;;;27.63;;
56181;SDS011;51963;46.052;14.544;2022-11-15T04:17:14;52.22;;;25.67;;
56181;SDS011;51963;46.052;14.544;2022-11-15T04:19:58;54.53;;;25.65;;
56181;SDS011;51963;46.052;14.544;2022-11-15T04:23:03;57.53;;;25.90;;
56181;SDS011;51963;46.052;14.544;2022-11-15T04:26:11;62.20;;;26.88;;
56181;SDS011;51963;46.052;14.544;2022-11-15T04:29:00;58.67;;;26.25;;
56181;SDS011;51963;46.052;14.544;2022-11-15T04:32:03;54.03;;;24.60;;
56181;SDS011;51963;46.052;14.544;2022-11-15T04:34:49;55.05;;;25.92;;
56181;SDS011;51963;46.052;14.544;2022-11-15T04:37:33;51.67;;;23.38;;
56181;SDS011;51963;46.052;14.544;2022-11-15T04:40:17;59.30;;;26.30;;
56181;SDS011;51963;46.052;14.544;2022-11-15T04:43:02;52.30;;;25.50;;
56181;SDS011;51963;46.052;14.544;2022-11-15T04:45:46;53.95;;;23.73;;
56181;SDS011;51963;46.052;14.544;2022-11-15T04:48:30;49.42;;;22.60;;
56181;SDS011;51963;46.052;14.544;2022-11-15T04:51:15;51.58;;;23.52;;
56181;SDS011;51963;46.052;14.544;2022-11-15T04:53:59;50.70;;;23.63;;
56181;SDS011;51963;46.052;14.544;2022-11-15T04:56:44;45.80;;;21.40;;
56181;SDS011;51963;46.052;14.544;2022-11-15T04:59:28;52.22;;;23.63;;
56181;SDS011;51963;46.052;14.544;2022-11-15T05:02:12;54.30;;;24.08;;
56181;SDS011;51963;46.052;14.544;2022-11-15T05:04:56;52.05;;;23.70;;
56181;SDS011;51963;46.052;14.544;2022-11-15T05:07:40;55.92;;;23.67;;
56181;SDS011;51963;46.052;14.544;2022-11-15T05:10:25;50.40;;;24.00;;
56181;SDS011;51963;46.052;14.544;2022-11-15T05:13:09;57.67;;;24.42;;
56181;SDS011;51963;46.052;14.544;2022-11-15T05:15:53;55.70;;;24.52;;
56181;SDS011;51963;46.052;14.544;2022-11-15T05:18:37;54.65;;;23.67;;
56181;SDS011;51963;46.052;14.544;2022-11-15T05:21:24;50.83;;;21.88;;
56181;SDS011;51963;46.052;14.544;2022-11-15T05:24:09;55.13;;;24.75;;
56181;SDS011;51963;46.052;14.544;2022-11-15T05:26:55;56.03;;;24.27;;
56181;SDS011;51963;46.052;14.544;2022-11-15T05:29:39;50.38;;;23.15;;
56181;SDS011;51963;46.052;14.544;2022-11-15T05:32:23;59.10;;;24.52;;
56181;SDS011;51963;46.052;14.544;2022-11-15T05:35:08;54.92;;;24.08;;
56181;SDS011;51963;46.052;14.544;2022-11-15T05:38:15;54.28;;;25.00;;
56181;SDS011;51963;46.052;14.544;2022-11-15T05:40:59;50.45;;;23.13;;
56181;SDS011;51963;46.052;14.544;2022-11-15T05:43:44;60.00;;;25.90;;
56181;SDS011;51963;46.052;14.544;2022-11-15T05:46:32;55.30;;;24.67;;
56181;SDS011;51963;46.052;14.544;2022-11-15T05:49:18;53.75;;;24.48;;
56181;SDS011;51963;46.052;14.544;2022-11-15T05:52:06;58.25;;;25.20;;
56181;SDS011;51963;46.052;14.544;2022-11-15T05:54:53;56.10;;;24.38;;
56181;SDS011;51963;46.052;14.544;2022-11-15T05:57:39;54.33;;;24.92;;
56181;SDS011;51963;46.052;14.544;2022-11-15T06:00:23;53.95;;;25.15;;
56181;SDS011;51963;46.052;14.544;2022-11-15T06:03:08;57.00;;;25.00;;
56181;SDS011;51963;46.052;14.544;2022-11-15T06:05:52;58.10;;;26.60;;
56181;SDS011;51963;46.052;14.544;2022-11-15T06:08:36;58.95;;;25.40;;
56181;SDS011;51963;46.052;14.544;2022-11-15T06:11:20;54.97;;;26.05;;
56181;SDS011;51963;46.052;14.544;2022-11-15T06:14:10;62.83;;;24.80;;
56181;SDS011;51963;46.052;14.544;2022-11-15T06:16:54;53.40;;;25.05;;
56181;SDS011;51963;46.052;14.544;2022-11-15T06:19:39;57.78;;;26.02;;
56181;SDS011;51963;46.052;14.544;2022-11-15T06:22:23;58.28;;;24.15;;
56181;SDS011;51963;46.052;14.544;2022-11-15T06:25:14;64.78;;;26.05;;
56181;SDS011;51963;46.052;14.544;2022-11-15T06:28:18;63.10;;;25.40;;
56181;SDS011;51963;46.052;14.544;2022-11-15T06:31:05;58.88;;;24.83;;
56181;SDS011;51963;46.052;14.544;2022-11-15T06:33:51;56.47;;;24.67;;
56181;SDS011;51963;46.052;14.544;2022-11-15T06:36:36;58.15;;;24.60;;
56181;SDS011;51963;46.052;14.544;2022-11-15T06:39:20;56.45;;;25.65;;
56181;SDS011;51963;46.052;14.544;2022-11-15T06:42:04;55.22;;;24.27;;
56181;SDS011;51963;46.052;14.544;2022-11-15T06:44:48;58.58;;;25.35;;
56181;SDS011;51963;46.052;14.544;2022-11-15T06:47:33;56.42;;;24.63;;
56181;SDS011;51963;46.052;14.544;2022-11-15T06:50:17;60.65;;;25.67;;
56181;SDS011;51963;46.052;14.544;2022-11-15T06:53:02;59.03;;;25.02;;
56181;SDS011;51963;46.052;14.544;2022-11-15T06:55:47;64.97;;;26.88;;
56181;SDS011;51963;46.052;14.544;2022-11-15T06:58:32;63.17;;;26.40;;
56181;SDS011;51963;46.052;14.544;2022-11-15T07:01:17;60.72;;;25.27;;
56181;SDS011;51963;46.052;14.544;2022-11-15T07:04:01;55.70;;;23.70;;
56181;SDS011;51963;46.052;14.544;2022-11-15T07:06:46;58.30;;;26.23;;
56181;SDS011;51963;46.052;14.544;2022-11-15T07:09:31;61.40;;;25.77;;
56181;SDS011;51963;46.052;14.544;2022-11-15T07:12:15;63.30;;;27.67;;
56181;SDS011;51963;46.052;14.544;2022-11-15T07:14:59;63.55;;;26.42;;
56181;SDS011;51963;46.052;14.544;2022-11-15T07:17:44;60.83;;;25.38;;
56181;SDS011;51963;46.052;14.544;2022-11-15T07:20:28;58.17;;;23.58;;
56181;SDS011;51963;46.052;14.544;2022-11-15T07:23:12;51.85;;;23.52;;
56181;SDS011;51963;46.052;14.544;2022-11-15T07:25:57;60.00;;;24.58;;
56181;SDS011;51963;46.052;14.544;2022-11-15T07:28:42;57.42;;;24.67;;
56181;SDS011;51963;46.052;14.544;2022-11-15T07:31:26;55.28;;;23.13;;
56181;SDS011;51963;46.052;14.544;2022-11-15T07:34:11;53.40;;;24.05;;
56181;SDS011;51963;46.052;14.544;2022-11-15T07:36:55;55.72;;;24.17;;
56181;SDS011;51963;46.052;14.544;2022-11-15T07:39:39;51.70;;;23.35;;
56181;SDS011;51963;46.052;14.544;2022-11-15T07:42:23;52.10;;;23.60;;
56181;SDS011;51963;46.052;14.544;2022-11-15T07:45:26;56.55;;;24.48;;
56181;SDS011;51963;46.052;14.544;2022-11-15T07:48:10;57.47;;;25.02;;
56181;SDS011;51963;46.052;14.544;2022-11-15T07:50:55;61.50;;;25.60;;
56181;SDS011;51963;46.052;14.544;2022-11-15T07:53:39;56.38;;;25.33;;
56181;SDS011;51963;46.052;14.544;2022-11-15T07:56:23;48.83;;;23.15;;
56181;SDS011;51963;46.052;14.544;2022-11-15T07:59:07;48.75;;;22.88;;
56181;SDS011;51963;46.052;14.544;2022-11-15T08:01:51;40.92;;;20.77;;
56181;SDS011;51963;46.052;14.544;2022-11-15T08:04:35;46.20;;;20.55;;
56181;SDS011;51963;46.052;14.544;2022-11-15T08:07:20;47.38;;;21.00;;
56181;SDS011;51963;46.052;14.544;2022-11-15T08:10:04;50.03;;;21.58;;
56181;SDS011;51963;46.052;14.544;2022-11-15T08:12:57;53.28;;;21.50;;
56181;SDS011;51963;46.052;14.544;2022-11-15T08:15:49;46.70;;;21.80;;
56181;SDS011;51963;46.052;14.544;2022-11-15T08:18:34;48.65;;;21.02;;
56181;SDS011;51963;46.052;14.544;2022-11-15T08:21:18;52.28;;;21.63;;
56181;SDS011;51963;46.052;14.544;2022-11-15T08:24:04;46.20;;;21.27;;
56181;SDS011;51963;46.052;14.544;2022-11-15T08:26:49;52.47;;;23.63;;
56181;SDS011;51963;46.052;14.544;2022-11-15T08:29:33;52.35;;;23.00;;
56181;SDS011;51963;46.052;14.544;2022-11-15T08:32:17;51.85;;;22.38;;
56181;SDS011;51963;46.052;14.544;2022-11-15T08:35:02;46.10;;;20.50;;
56181;SDS011;51963;46.052;14.544;2022-11-15T08:37:46;44.22;;;20.90;;
56181;SDS011;51963;46.052;14.544;2022-11-15T08:40:31;46.47;;;20.63;;
56181;SDS011;51963;46.052;14.544;2022-11-15T08:43:15;45.42;;;21.25;;
56181;SDS011;51963;46.052;14.544;2022-11-15T08:46:00;51.28;;;21.48;;
56181;SDS011;51963;46.052;14.544;2022-11-15T08:48:44;43.92;;;19.92;;
56181;SDS011;51963;46.052;14.544;2022-11-15T08:51:28;43.20;;;19.92;;
56181;SDS011;51963;46.052;14.544;2022-11-15T08:54:12;48.22;;;20.42;;
56181;SDS011;51963;46.052;14.544;2022-11-15T08:56:57;37.85;;;18.65;;
56181;SDS011;51963;46.052;14.544;2022-11-15T08:59:41;39.38;;;19.48;;
56181;SDS011;51963;46.052;14.544;2022-11-15T09:02:25;38.95;;;19.35;;
56181;SDS011;51963;46.052;14.544;2022-11-15T09:05:09;37.47;;;18.50;;
56181;SDS011;51963;46.052;14.544;2022-11-15T09:07:53;38.97;;;18.13;;
56181;SDS011;51963;46.052;14.544;2022-11-15T09:10:38;41.95;;;19.52;;
56181;SDS011;51963;46.052;14.544;2022-11-15T09:13:22;37.75;;;18.77;;
56181;SDS011;51963;46.052;14.544;2022-11-15T09:16:06;38.35;;;19.00;;
56181;SDS011;51963;46.052;14.544;2022-11-15T09:18:50;34.83;;;18.10;;
56181;SDS011;51963;46.052;14.544;2022-11-15T09:21:42;36.13;;;17.88;;
56181;SDS011;51963;46.052;14.544;2022-11-15T09:24:26;35.17;;;18.88;;
56181;SDS011;51963;46.052;14.544;2022-11-15T09:27:10;35.92;;;18.40;;
56181;SDS011;51963;46.052;14.544;2022-11-15T09:29:55;38.30;;;18.80;;
56181;SDS011;51963;46.052;14.544;2022-11-15T09:32:39;35.00;;;18.75;;
56181;SDS011;51963;46.052;14.544;2022-11-15T09:35:23;35.88;;;18.55;;
56181;SDS011;51963;46.052;14.544;2022-11-15T09:38:07;35.13;;;18.70;;
56181;SDS011;51963;46.052;14.544;2022-11-15T09:40:53;34.20;;;16.98;;
56181;SDS011;51963;46.052;14.544;2022-11-15T09:46:38;33.35;;;16.60;;
56181;SDS011;51963;46.052;14.544;2022-11-15T09:49:15;30.42;;;15.90;;
56181;SDS011;51963;46.052;14.544;2022-11-15T09:51:56;31.52;;;17.02;;
56181;SDS011;51963;46.052;14.544;2022-11-15T09:56:56;26.48;;;14.95;;
56181;SDS011;51963;46.052;14.544;2022-11-15T10:02:41;33.72;;;15.45;;
56181;SDS011;51963;46.052;14.544;2022-11-15T10:05:20;27.08;;;14.18;;
56181;SDS011;51963;46.052;14.544;2022-11-15T10:10:34;28.58;;;14.35;;
56181;SDS011;51963;46.052;14.544;2022-11-15T10:13:03;28.20;;;15.05;;
56181;SDS011;51963;46.052;14.544;2022-11-15T10:15:29;29.63;;;15.43;;
56181;SDS011;51963;46.052;14.544;2022-11-15T10:20:32;27.50;;;15.30;;
56181;SDS011;51963;46.052;14.544;2022-11-15T10:23:10;27.58;;;15.20;;
56181;SDS011;51963;46.052;14.544;2022-11-15T10:25:38;28.70;;;14.80;;
56181;SDS011;51963;46.052;14.544;2022-11-15T10:28:17;30.63;;;13.90;;
56181;SDS011;51963;46.052;14.544;2022-11-15T10:30:52;23.98;;;14.35;;
56181;SDS011;51963;46.052;14.544;2022-11-15T10:41:16;18.15;;;10.90;;
56181;SDS011;51963;46.052;14.544;2022-11-15T10:44:21;26.20;;;12.90;;
56181;SDS011;51963;46.052;14.544;2022-11-15T10:46:41;18.95;;;12.30;;
56181;SDS011;51963;46.052;14.544;2022-11-15T10:49:16;19.00;;;11.32;;
56181;SDS011;51963;46.052;14.544;2022-11-15T10:51:47;20.33;;;11.98;;
56181;SDS011;51963;46.052;14.544;2022-11-15T10:54:18;21.02;;;12.27;;
56181;SDS011;51963;46.052;14.544;2022-11-15T10:56:51;22.80;;;11.88;;
56181;SDS011;51963;46.052;14.544;2022-11-15T10:59:23;18.50;;;10.15;;
56181;SDS011;51963;46.052;14.544;2022-11-15T11:01:53;18.67;;;10.57;;
56181;SDS011;51963;46.052;14.544;2022-11-15T11:04:19;13.60;;;9.05;;
56181;SDS011;51963;46.052;14.544;2022-11-15T11:09:21;16.05;;;9.73;;
56181;SDS011;51963;46.052;14.544;2022-11-15T11:11:56;16.30;;;8.95;;
56181;SDS011;51963;46.052;14.544;2022-11-15T11:14:23;12.35;;;7.85;;
56181;SDS011;51963;46.052;14.544;2022-11-15T11:22:48;14.55;;;7.63;;
56181;SDS011;51963;46.052;14.544;2022-11-15T11:30:59;12.57;;;6.97;;
56181;SDS011;51963;46.052;14.544;2022-11-15T11:33:54;8.35;;;5.45;;
56181;SDS011;51963;46.052;14.544;2022-11-15T11:36:59;10.10;;;6.43;;
56181;SDS011;51963;46.052;14.544;2022-11-15T11:51:18;7.53;;;4.88;;
56181;SDS011;51963;46.052;14.544;2022-11-15T11:53:58;9.35;;;5.35;;
56181;SDS011;51963;46.052;14.544;2022-11-15T11:56:34;10.63;;;4.78;;
56181;SDS011;51963;46.052;14.544;2022-11-15T12:01:40;6.90;;;4.50;;
56181;SDS011;51963;46.052;14.544;2022-11-15T12:07:13;7.15;;;4.70;;
56181;SDS011;51963;46.052;14.544;2022-11-15T12:18:14;7.20;;;4.80;;
56181;SDS011;51963;46.052;14.544;2022-11-15T12:20:48;7.15;;;5.05;;
56181;SDS011;51963;46.052;14.544;2022-11-15T12:23:27;7.75;;;4.55;;
56181;SDS011;51963;46.052;14.544;2022-11-15T12:26:20;9.13;;;4.90;;
56181;SDS011;51963;46.052;14.544;2022-11-15T12:28:50;7.50;;;5.53;;
56181;SDS011;51963;46.052;14.544;2022-11-15T12:31:24;8.85;;;6.00;;
56181;SDS011;51963;46.052;14.544;2022-11-15T12:33:56;10.05;;;5.88;;
56181;SDS011;51963;46.052;14.544;2022-11-15T12:41:17;9.75;;;5.88;;
56181;SDS011;51963;46.052;14.544;2022-11-15T12:43:44;10.23;;;6.10;;
56181;SDS011;51963;46.052;14.544;2022-11-15T12:48:51;6.22;;;4.43;;
56181;SDS011;51963;46.052;14.544;2022-11-15T12:51:19;6.53;;;4.50;;
56181;SDS011;51963;46.052;14.544;2022-11-15T12:53:46;7.45;;;4.60;;
56181;SDS011;51963;46.052;14.544;2022-11-15T13:06:46;6.65;;;3.80;;
56181;SDS011;51963;46.052;14.544;2022-11-15T13:12:02;6.20;;;3.42;;
56181;SDS011;51963;46.052;14.544;2022-11-15T13:14:56;4.65;;;3.50;;
56181;SDS011;51963;46.052;14.544;2022-11-15T13:17:37;4.53;;;3.10;;
56181;SDS011;51963;46.052;14.544;2022-11-15T13:27:51;4.35;;;2.78;;
56181;SDS011;51963;46.052;14.544;2022-11-15T13:30:27;3.70;;;2.90;;
56181;SDS011;51963;46.052;14.544;2022-11-15T13:32:55;4.25;;;3.15;;
56181;SDS011;51963;46.052;14.544;2022-11-15T13:35:27;4.93;;;3.47;;
56181;SDS011;51963;46.052;14.544;2022-11-15T13:38:04;4.85;;;3.35;;
56181;SDS011;51963;46.052;14.544;2022-11-15T13:40:37;6.45;;;3.53;;
56181;SDS011;51963;46.052;14.544;2022-11-15T13:48:33;4.75;;;3.72;;
56181;SDS011;51963;46.052;14.544;2022-11-15T13:51:00;4.32;;;3.20;;
56181;SDS011;51963;46.052;14.544;2022-11-15T13:53:29;4.80;;;3.60;;
56181;SDS011;51963;46.052;14.544;2022-11-15T13:55:57;4.63;;;3.45;;
56181;SDS011;51963;46.052;14.544;2022-11-15T13:58:27;5.85;;;3.67;;
56181;SDS011;51963;46.052;14.544;2022-11-15T14:01:00;6.30;;;3.85;;
56181;SDS011;51963;46.052;14.544;2022-11-15T14:03:29;4.88;;;3.47;;
56181;SDS011;51963;46.052;14.544;2022-11-15T14:08:33;6.38;;;3.38;;
56181;SDS011;51963;46.052;14.544;2022-11-15T14:11:12;4.90;;;4.00;;
56181;SDS011;51963;46.052;14.544;2022-11-15T14:13:41;7.03;;;4.00;;
56181;SDS011;51963;46.052;14.544;2022-11-15T14:16:33;5.50;;;3.97;;
56181;SDS011;51963;46.052;14.544;2022-11-15T14:19:04;6.47;;;4.73;;
56181;SDS011;51963;46.052;14.544;2022-11-15T14:21:32;6.90;;;4.68;;
56181;SDS011;51963;46.052;14.544;2022-11-15T14:24:14;6.63;;;4.47;;
56181;SDS011;51963;46.052;14.544;2022-11-15T14:26:47;9.98;;;5.47;;
56181;SDS011;51963;46.052;14.544;2022-11-15T14:29:28;6.43;;;4.93;;
56181;SDS011;51963;46.052;14.544;2022-11-15T14:32:14;7.63;;;5.55;;
56181;SDS011;51963;46.052;14.544;2022-11-15T14:34:42;7.28;;;5.10;;
56181;SDS011;51963;46.052;14.544;2022-11-15T14:37:16;8.85;;;5.57;;
56181;SDS011;51963;46.052;14.544;2022-11-15T14:42:11;8.02;;;5.05;;
56181;SDS011;51963;46.052;14.544;2022-11-15T14:44:40;9.32;;;6.03;;
56181;SDS011;51963;46.052;14.544;2022-11-15T14:47:06;7.85;;;5.28;;
56181;SDS011;51963;46.052;14.544;2022-11-15T14:49:34;10.95;;;6.30;;
56181;SDS011;51963;46.052;14.544;2022-11-15T14:52:00;8.50;;;5.88;;
56181;SDS011;51963;46.052;14.544;2022-11-15T14:54:25;7.97;;;5.78;;
56181;SDS011;51963;46.052;14.544;2022-11-15T14:56:51;9.00;;;5.85;;
56181;SDS011;51963;46.052;14.544;2022-11-15T14:59:17;7.95;;;5.95;;
56181;SDS011;51963;46.052;14.544;2022-11-15T15:01:45;11.95;;;6.30;;
56181;SDS011;51963;46.052;14.544;2022-11-15T15:04:11;11.45;;;6.50;;
56181;SDS011;51963;46.052;14.544;2022-11-15T15:06:37;10.20;;;6.20;;
56181;SDS011;51963;46.052;14.544;2022-11-15T15:09:03;10.45;;;6.63;;
56181;SDS011;51963;46.052;14.544;2022-11-15T15:11:30;9.63;;;6.70;;
56181;SDS011;51963;46.052;14.544;2022-11-15T15:13:56;12.32;;;7.18;;
56181;SDS011;51963;46.052;14.544;2022-11-15T15:16:25;10.85;;;6.68;;
56181;SDS011;51963;46.052;14.544;2022-11-15T15:18:51;11.07;;;7.20;;
56181;SDS011;51963;46.052;14.544;2022-11-15T15:21:19;12.55;;;7.75;;
56181;SDS011;51963;46.052;14.544;2022-11-15T15:23:49;13.20;;;7.05;;
56181;SDS011;51963;46.052;14.544;2022-11-15T15:26:15;11.88;;;7.30;;
56181;SDS011;51963;46.052;14.544;2022-11-15T15:28:41;13.43;;;7.47;;
56181;SDS011;51963;46.052;14.544;2022-11-15T15:31:10;14.90;;;7.63;;
56181;SDS011;51963;46.052;14.544;2022-11-15T15:33:37;11.18;;;7.60;;
56181;SDS011;51963;46.052;14.544;2022-11-15T15:36:03;14.30;;;7.30;;
56181;SDS011;51963;46.052;14.544;2022-11-15T15:38:29;12.88;;;7.63;;
56181;SDS011;51963;46.052;14.544;2022-11-15T15:40:54;12.35;;;7.70;;
56181;SDS011;51963;46.052;14.544;2022-11-15T15:43:20;13.07;;;7.63;;
56181;SDS011;51963;46.052;14.544;2022-11-15T15:45:46;11.32;;;8.10;;
56181;SDS011;51963;46.052;14.544;2022-11-15T15:48:12;14.15;;;8.90;;
56181;SDS011;51963;46.052;14.544;2022-11-15T15:50:39;12.30;;;8.23;;
56181;SDS011;51963;46.052;14.544;2022-11-15T15:53:08;11.13;;;7.43;;
56181;SDS011;51963;46.052;14.544;2022-11-15T15:55:35;13.13;;;7.87;;
56181;SDS011;51963;46.052;14.544;2022-11-15T15:58:02;12.75;;;7.60;;
56181;SDS011;51963;46.052;14.544;2022-11-15T16:00:29;13.10;;;8.35;;
56181;SDS011;51963;46.052;14.544;2022-11-15T16:02:54;12.55;;;8.20;;
56181;SDS011;51963;46.052;14.544;2022-11-15T16:05:21;14.40;;;8.63;;
56181;SDS011;51963;46.052;14.544;2022-11-15T16:07:47;15.05;;;9.32;;
56181;SDS011;51963;46.052;14.544;2022-11-15T16:12:42;18.42;;;9.82;;
56181;SDS011;51963;46.052;14.544;2022-11-15T16:15:08;15.02;;;9.00;;
56181;SDS011;51963;46.052;14.544;2022-11-15T16:17:35;16.17;;;9.27;;
56181;SDS011;51963;46.052;14.544;2022-11-15T16:20:04;13.88;;;8.43;;
56181;SDS011;51963;46.052;14.544;2022-11-15T16:22:31;12.43;;;8.10;;
56181;SDS011;51963;46.052;14.544;2022-11-15T16:24:57;17.45;;;9.30;;
56181;SDS011;51963;46.052;14.544;2022-11-15T16:27:23;12.85;;;8.30;;
56181;SDS011;51963;46.052;14.544;2022-11-15T16:29:49;12.35;;;7.78;;
56181;SDS011;51963;46.052;14.544;2022-11-15T16:32:15;14.57;;;8.15;;
56181;SDS011;51963;46.052;14.544;2022-11-15T16:34:41;14.82;;;8.82;;
56181;SDS011;51963;46.052;14.544;2022-11-15T16:37:18;13.32;;;8.18;;
56181;SDS011;51963;46.052;14.544;2022-11-15T16:39:47;14.63;;;8.57;;
56181;SDS011;51963;46.052;14.544;2022-11-15T16:42:13;12.85;;;8.77;;
56181;SDS011;51963;46.052;14.544;2022-11-15T16:44:39;14.85;;;7.90;;
56181;SDS011;51963;46.052;14.544;2022-11-15T16:47:04;12.70;;;8.10;;
56181;SDS011;51963;46.052;14.544;2022-11-15T16:49:30;13.02;;;7.85;;
56181;SDS011;51963;46.052;14.544;2022-11-15T16:51:59;13.00;;;7.95;;
56181;SDS011;51963;46.052;14.544;2022-11-15T16:54:24;14.32;;;8.07;;
56181;SDS011;51963;46.052;14.544;2022-11-15T16:56:50;13.10;;;8.13;;
56181;SDS011;51963;46.052;14.544;2022-11-15T16:59:16;12.98;;;8.00;;
56181;SDS011;51963;46.052;14.544;2022-11-15T17:01:42;11.75;;;8.02;;
56181;SDS011;51963;46.052;14.544;2022-11-15T17:04:15;14.45;;;8.70;;
56181;SDS011;51963;46.052;14.544;2022-11-15T17:06:43;13.25;;;8.25;;
56181;SDS011;51963;46.052;14.544;2022-11-15T17:09:11;14.47;;;8.23;;
56181;SDS011;51963;46.052;14.544;2022-11-15T17:11:50;14.02;;;8.27;;
56181;SDS011;51963;46.052;14.544;2022-11-15T17:14:16;12.52;;;7.68;;
56181;SDS011;51963;46.052;14.544;2022-11-15T17:16:42;15.77;;;7.90;;
56181;SDS011;51963;46.052;14.544;2022-11-15T17:19:24;14.00;;;7.28;;
56181;SDS011;51963;46.052;14.544;2022-11-15T17:22:15;14.25;;;7.88;;
56181;SDS011;51963;46.052;14.544;2022-11-15T17:24:46;11.15;;;7.18;;
56181;SDS011;51963;46.052;14.544;2022-11-15T17:27:12;14.13;;;7.95;;
56181;SDS011;51963;46.052;14.544;2022-11-15T17:29:38;11.45;;;7.45;;
56181;SDS011;51963;46.052;14.544;2022-11-15T17:32:05;13.02;;;8.38;;
56181;SDS011;51963;46.052;14.544;2022-11-15T17:34:31;14.80;;;8.02;;
56181;SDS011;51963;46.052;14.544;2022-11-15T17:36:57;12.68;;;8.15;;
56181;SDS011;51963;46.052;14.544;2022-11-15T17:39:23;13.13;;;8.20;;